createdAt,value
2018-05-10T00:01:17.581Z,3.97
2018-05-10T00:03:43.811Z,3.30
2018-05-10T00:06:10.090Z,3.40
2018-05-10T00:08:36.371Z,3.77
2018-05-10T00:11:02.591Z,3.70
2018-05-10T00:13:28.812Z,3.93
2018-05-10T00:15:55.029Z,3.63
2018-05-10T00:18:21.257Z,3.23
2018-05-10T00:20:47.514Z,4.00
2018-05-10T00:23:13.689Z,3.77
2018-05-10T00:25:40.923Z,3.93
2018-05-10T00:28:07.898Z,3.37
2018-05-10T00:30:34.273Z,3.70
2018-05-10T00:33:00.459Z,3.93
2018-05-10T00:35:26.682Z,4.40
2018-05-10T00:37:53.471Z,4.70
2018-05-10T00:40:19.668Z,4.20
2018-05-10T00:42:46.611Z,4.30
2018-05-10T00:45:12.873Z,3.87
2018-05-10T00:47:39.799Z,4.33
2018-05-10T00:50:07.462Z,4.90
2018-05-10T00:52:34.394Z,4.40
2018-05-10T00:55:00.606Z,4.07
2018-05-10T00:57:26.873Z,4.13
2018-05-10T00:59:53.078Z,4.10
2018-05-10T01:02:19.322Z,3.77
2018-05-10T01:04:45.622Z,5.90
2018-05-10T01:07:11.766Z,4.43
2018-05-10T01:09:44.853Z,4.20
2018-05-10T01:12:11.493Z,3.70
2018-05-10T01:14:37.684Z,3.50
2018-05-10T01:17:03.834Z,4.00
2018-05-10T01:19:31.378Z,3.67
2018-05-10T01:21:58.390Z,3.77
2018-05-10T01:24:24.633Z,3.67
2018-05-10T01:26:50.883Z,3.53
2018-05-10T01:29:17.053Z,3.87
2018-05-10T01:31:44.250Z,3.43
2018-05-10T01:34:10.522Z,2.83
2018-05-10T01:36:36.682Z,3.07
2018-05-10T01:39:03.915Z,3.60
2018-05-10T01:41:30.109Z,3.40
2018-05-10T01:43:56.411Z,3.47
2018-05-10T01:46:23.422Z,2.90
2018-05-10T01:48:49.787Z,3.20
2018-05-10T01:51:16.012Z,2.97
2018-05-10T01:53:42.280Z,3.60
2018-05-10T01:56:08.499Z,2.90
2018-05-10T01:58:35.448Z,3.13
2018-05-10T02:01:02.480Z,3.53
2018-05-10T02:03:28.709Z,3.03
2018-05-10T02:05:54.937Z,3.30
2018-05-10T02:08:21.116Z,3.70
2018-05-10T02:10:48.191Z,3.57
2018-05-10T02:13:14.442Z,3.50
2018-05-10T02:15:40.627Z,3.60
2018-05-10T02:18:07.557Z,3.07
2018-05-10T02:20:33.763Z,3.60
2018-05-10T02:22:59.984Z,3.73
2018-05-10T02:25:26.181Z,3.67
2018-05-10T02:27:53.107Z,3.73
2018-05-10T02:30:19.313Z,3.83
2018-05-10T02:32:45.537Z,3.37
2018-05-10T02:35:12.030Z,3.47
2018-05-10T02:37:38.220Z,3.53
2018-05-10T02:40:04.379Z,2.80
2018-05-10T02:42:30.636Z,3.37
2018-05-10T02:44:57.673Z,3.07
2018-05-10T02:47:23.799Z,2.70
2018-05-10T02:49:50.056Z,2.70
2018-05-10T02:52:17.006Z,2.63
2018-05-10T02:54:43.215Z,2.80
2018-05-10T02:57:09.461Z,3.13
2018-05-10T03:02:08.694Z,3.13
2018-05-10T03:04:35.709Z,3.10
2018-05-10T03:07:01.878Z,3.00
2018-05-10T03:09:28.834Z,3.00
2018-05-10T03:11:55.085Z,3.00
2018-05-10T03:14:21.281Z,2.80
2018-05-10T03:16:48.960Z,3.33
2018-05-10T03:19:15.127Z,2.53
2018-05-10T03:21:41.327Z,3.40
2018-05-10T03:24:07.543Z,3.23
2018-05-10T03:26:33.731Z,3.33
2018-05-10T03:28:59.962Z,3.30
2018-05-10T03:31:28.028Z,3.33
2018-05-10T03:33:54.961Z,3.60
2018-05-10T03:36:22.623Z,3.17
2018-05-10T03:38:48.862Z,3.67
2018-05-10T03:41:15.096Z,3.87
2018-05-10T03:43:41.324Z,4.13
2018-05-10T03:46:07.505Z,3.90
2018-05-10T03:48:33.694Z,4.03
2018-05-10T03:50:59.901Z,3.97
2018-05-10T03:53:26.115Z,4.53
2018-05-10T03:55:52.295Z,4.30
2018-05-10T03:58:18.506Z,3.93
2018-05-10T04:00:44.698Z,3.60
2018-05-10T04:06:49.738Z,4.40
2018-05-10T04:09:34.643Z,3.80
2018-05-10T04:12:00.814Z,4.10
2018-05-10T04:14:27.032Z,4.30
2018-05-10T04:16:53.962Z,4.33
2018-05-10T04:19:21.881Z,4.67
2018-05-10T04:21:48.069Z,3.80
2018-05-10T04:24:14.248Z,3.40
2018-05-10T04:26:40.478Z,3.73
2018-05-10T04:29:06.765Z,3.43
2018-05-10T04:31:33.589Z,3.40
2018-05-10T04:33:59.814Z,3.43
2018-05-10T04:36:26.041Z,3.33
2018-05-10T04:38:52.192Z,3.50
2018-05-10T04:41:18.388Z,3.30
2018-05-10T04:43:45.308Z,3.67
2018-05-10T04:46:11.501Z,3.40
2018-05-10T04:48:37.809Z,3.30
2018-05-10T04:51:04.023Z,3.50
2018-05-10T04:53:31.634Z,3.67
2018-05-10T04:55:57.828Z,3.67
2018-05-10T04:58:24.012Z,3.20
2018-05-10T05:00:50.174Z,3.27
2018-05-10T05:03:16.504Z,3.17
2018-05-10T05:05:42.621Z,3.23
2018-05-10T05:08:08.819Z,3.10
2018-05-10T05:10:35.775Z,3.00
2018-05-10T05:13:01.973Z,2.90
2018-05-10T05:15:28.132Z,3.50
2018-05-10T05:17:54.308Z,2.87
2018-05-10T05:20:20.584Z,3.30
2018-05-10T05:22:46.893Z,3.17
2018-05-10T05:25:13.877Z,3.07
2018-05-10T05:27:40.862Z,2.77
2018-05-10T05:30:07.057Z,2.80
2018-05-10T05:32:34.033Z,2.97
2018-05-10T05:35:00.948Z,2.67
2018-05-10T05:37:27.204Z,2.77
2018-05-10T05:39:53.559Z,3.23
2018-05-10T05:42:19.776Z,2.60
2018-05-10T05:44:46.013Z,2.90
2018-05-10T05:47:12.952Z,3.20
2018-05-10T05:49:39.838Z,2.90
2018-05-10T05:52:06.112Z,2.80
2018-05-10T05:54:32.329Z,2.53
2018-05-10T05:56:58.571Z,3.13
2018-05-10T05:59:24.744Z,2.80
2018-05-10T06:01:50.942Z,3.00
2018-05-10T06:04:17.160Z,3.07
2018-05-10T06:06:43.396Z,3.03
2018-05-10T06:09:09.568Z,2.77
2018-05-10T06:11:35.797Z,2.80
2018-05-10T06:14:01.988Z,3.27
2018-05-10T06:16:28.242Z,3.10
2018-05-10T06:18:54.485Z,3.10
2018-05-10T06:21:20.696Z,3.03
2018-05-10T06:23:46.889Z,2.97
2018-05-10T06:26:13.798Z,2.93
2018-05-10T06:28:39.976Z,2.80
2018-05-10T06:31:06.889Z,2.90
2018-05-10T06:33:33.349Z,3.03
2018-05-10T06:35:59.794Z,3.30
2018-05-10T06:38:26.213Z,2.97
2018-05-10T06:40:53.440Z,2.90
2018-05-10T06:43:20.005Z,2.90
2018-05-10T06:45:47.018Z,2.77
2018-05-10T06:48:13.228Z,2.80
2018-05-10T06:50:39.437Z,2.77
2018-05-10T06:53:05.859Z,2.60
2018-05-10T06:55:32.150Z,2.40
2018-05-10T06:57:58.387Z,2.70
2018-05-10T07:00:24.661Z,2.90
2018-05-10T07:02:51.653Z,2.90
2018-05-10T07:05:17.876Z,2.77
2018-05-10T07:07:44.830Z,2.83
2018-05-10T07:10:11.059Z,2.50
2018-05-10T07:12:37.423Z,2.73
2018-05-10T07:15:03.644Z,3.17
2018-05-10T07:17:30.614Z,2.40
2018-05-10T07:19:56.832Z,2.90
2018-05-10T07:22:23.761Z,2.43
2018-05-10T07:24:51.417Z,2.47
2018-05-10T07:27:17.621Z,2.77
2018-05-10T07:29:43.838Z,2.60
2018-05-10T07:32:10.090Z,2.90
2018-05-10T07:34:36.331Z,2.93
2018-05-10T07:37:02.579Z,2.73
2018-05-10T07:39:28.826Z,3.00
2018-05-10T07:41:55.344Z,2.93
2018-05-10T07:44:21.809Z,2.90
2018-05-10T07:46:48.500Z,2.93
2018-05-10T07:49:15.245Z,2.97
2018-05-10T07:51:41.831Z,2.90
2018-05-10T07:54:08.041Z,2.87
2018-05-10T07:56:34.213Z,2.67
2018-05-10T07:59:00.726Z,2.90
2018-05-10T08:01:27.094Z,3.00
2018-05-10T08:03:53.392Z,3.10
2018-05-10T08:06:20.472Z,3.03
2018-05-10T08:08:46.966Z,2.93
2018-05-10T08:11:13.505Z,2.97
2018-05-10T08:13:40.004Z,2.90
2018-05-10T08:16:06.962Z,2.93
2018-05-10T08:18:34.786Z,2.97
2018-05-10T08:21:01.222Z,3.10
2018-05-10T08:23:45.904Z,2.80
2018-05-10T08:26:12.157Z,2.80
2018-05-10T08:28:38.351Z,3.40
2018-05-10T08:31:04.601Z,3.10
2018-05-10T08:33:30.996Z,2.90
2018-05-10T08:35:57.155Z,2.57
2018-05-10T08:38:23.346Z,2.60
2018-05-10T08:40:50.349Z,2.43
2018-05-10T08:43:16.571Z,2.77
2018-05-10T08:45:42.768Z,2.80
2018-05-10T08:48:09.862Z,3.17
2018-05-10T08:50:36.849Z,3.07
2018-05-10T08:53:03.110Z,2.47
2018-05-10T08:55:29.310Z,2.80
2018-05-10T08:57:55.500Z,3.30
2018-05-10T09:00:21.693Z,3.00
2018-05-10T09:02:48.708Z,3.00
2018-05-10T09:05:14.973Z,2.93
2018-05-10T09:07:41.198Z,2.90
2018-05-10T09:10:07.442Z,2.37
2018-05-10T09:12:34.161Z,3.07
2018-05-10T09:15:01.161Z,2.60
2018-05-10T09:17:27.999Z,2.73
2018-05-10T09:19:54.978Z,3.23
2018-05-10T09:22:21.745Z,3.20
2018-05-10T09:24:47.980Z,3.33
2018-05-10T09:27:14.191Z,2.83
2018-05-10T09:29:40.352Z,3.13
2018-05-10T09:32:06.570Z,3.10
2018-05-10T09:34:32.751Z,3.43
2018-05-10T09:36:58.925Z,2.80
2018-05-10T09:39:25.178Z,2.90
2018-05-10T09:41:51.343Z,3.70
2018-05-10T09:44:17.523Z,3.47
2018-05-10T09:46:43.690Z,3.20
2018-05-10T09:49:10.629Z,3.70
2018-05-10T09:51:36.791Z,3.80
2018-05-10T09:54:02.961Z,3.37
2018-05-10T09:56:29.905Z,3.23
2018-05-10T09:58:56.089Z,3.20
2018-05-10T10:01:22.300Z,3.30
2018-05-10T10:03:48.455Z,3.40
2018-05-10T10:06:14.711Z,2.80
2018-05-10T10:08:40.909Z,3.10
2018-05-10T10:11:07.092Z,3.13
2018-05-10T10:13:33.469Z,3.60
2018-05-10T10:15:59.686Z,3.60
2018-05-10T10:18:26.571Z,3.60
2018-05-10T10:20:52.757Z,3.13
2018-05-10T10:23:18.977Z,4.00
2018-05-10T10:25:45.137Z,3.70
2018-05-10T10:28:12.126Z,3.40
2018-05-10T10:30:38.345Z,3.30
2018-05-10T10:33:04.518Z,3.87
2018-05-10T10:35:30.712Z,3.20
2018-05-10T10:37:56.892Z,3.10
2018-05-10T10:40:23.062Z,3.13
2018-05-10T10:42:49.976Z,3.07
2018-05-10T10:45:16.190Z,3.10
2018-05-10T10:47:42.446Z,3.23
2018-05-10T10:50:08.633Z,3.40
2018-05-10T10:52:34.809Z,3.40
2018-05-10T10:55:00.975Z,3.20
2018-05-10T10:57:27.145Z,2.80
2018-05-10T10:59:53.419Z,2.50
2018-05-10T11:02:19.533Z,2.87
2018-05-10T11:04:45.797Z,3.03
2018-05-10T11:07:12.838Z,2.93
2018-05-10T11:09:38.966Z,2.70
2018-05-10T11:12:05.125Z,3.13
2018-05-10T11:14:32.058Z,3.47
2018-05-10T11:16:58.285Z,3.00
2018-05-10T11:19:24.540Z,2.83
2018-05-10T11:21:51.512Z,2.50
2018-05-10T11:24:18.420Z,2.60
2018-05-10T11:26:44.629Z,2.60
2018-05-10T11:29:10.805Z,3.10
2018-05-10T11:31:37.003Z,3.07
2018-05-10T11:34:03.212Z,2.93
2018-05-10T11:36:29.389Z,2.80
2018-05-10T11:38:56.238Z,3.03
2018-05-10T11:41:22.428Z,2.83
2018-05-10T11:43:48.624Z,2.83
2018-05-10T11:46:14.786Z,2.90
2018-05-10T11:48:41.039Z,2.50
2018-05-10T11:51:07.168Z,2.67
2018-05-10T11:53:33.393Z,2.40
2018-05-10T11:55:59.582Z,2.50
2018-05-10T11:58:25.781Z,2.30
2018-05-10T12:00:52.019Z,2.50
2018-05-10T12:03:18.207Z,1.93
2018-05-10T12:05:44.358Z,3.00
2018-05-10T12:08:10.639Z,2.57
2018-05-10T12:10:36.864Z,2.57
2018-05-10T12:13:03.081Z,2.50
2018-05-10T12:15:29.324Z,2.67
2018-05-10T12:17:55.519Z,2.60
2018-05-10T12:20:22.503Z,2.60
2018-05-10T12:22:48.596Z,2.70
2018-05-10T12:25:15.544Z,2.67
2018-05-10T12:27:41.741Z,2.70
2018-05-10T12:30:07.953Z,2.67
2018-05-10T12:32:34.255Z,2.70
2018-05-10T12:35:01.539Z,3.17
2018-05-10T12:37:27.712Z,3.03
2018-05-10T12:39:53.884Z,2.63
2018-05-10T12:42:20.794Z,2.90
2018-05-10T12:44:46.949Z,3.10
2018-05-10T12:47:13.105Z,2.80
2018-05-10T12:49:40.007Z,2.67
2018-05-10T12:52:06.925Z,2.90
2018-05-10T12:54:33.082Z,3.47
2018-05-10T12:56:59.257Z,3.20
2018-05-10T12:59:26.143Z,2.70
2018-05-10T13:01:52.296Z,3.53
2018-05-10T13:04:18.499Z,3.13
2018-05-10T13:06:44.763Z,3.80
2018-05-10T13:09:10.878Z,3.40
2018-05-10T13:11:37.139Z,3.27
2018-05-10T13:14:03.357Z,3.47
2018-05-10T13:16:29.552Z,3.40
2018-05-10T13:18:55.766Z,3.93
2018-05-10T13:21:21.988Z,3.50
2018-05-10T13:23:48.230Z,3.90
2018-05-10T13:26:14.458Z,3.80
2018-05-10T13:28:41.408Z,3.63
2018-05-10T13:31:07.596Z,3.30
2018-05-10T13:33:33.808Z,3.83
2018-05-10T13:36:00.293Z,3.60
2018-05-10T13:38:27.430Z,3.37
2018-05-10T13:40:53.664Z,3.63
2018-05-10T13:43:19.988Z,3.40
2018-05-10T13:45:46.183Z,3.73
2018-05-10T13:48:13.096Z,3.43
2018-05-10T13:50:39.281Z,4.23
2018-05-10T13:53:06.295Z,3.90
2018-05-10T13:55:33.146Z,3.83
2018-05-10T13:57:59.324Z,3.57
2018-05-10T14:00:26.255Z,4.10
2018-05-10T14:02:52.456Z,3.67
2018-05-10T14:05:18.957Z,3.77
2018-05-10T14:07:45.172Z,3.73
2018-05-10T14:10:11.504Z,4.27
2018-05-10T14:12:37.673Z,4.00
2018-05-10T14:15:03.877Z,3.93
2018-05-10T14:17:30.804Z,3.67
2018-05-10T14:19:56.976Z,3.47
2018-05-10T14:22:23.885Z,3.73
2018-05-10T14:24:50.849Z,3.30
2018-05-10T14:27:17.036Z,3.30
2018-05-10T14:29:43.257Z,3.20
2018-05-10T14:32:09.550Z,3.23
2018-05-10T14:34:36.507Z,3.20
2018-05-10T14:37:03.521Z,3.77
2018-05-10T14:39:29.847Z,3.17
2018-05-10T14:41:56.731Z,3.30
2018-05-10T14:44:22.906Z,3.13
2018-05-10T14:46:49.083Z,4.30
2018-05-10T14:49:15.294Z,3.73
2018-05-10T14:51:41.508Z,3.30
2018-05-10T14:54:07.715Z,2.87
2018-05-10T14:56:34.642Z,3.30
2018-05-10T14:59:00.810Z,2.87
2018-05-10T15:01:27.733Z,2.80
2018-05-10T15:03:53.904Z,2.73
2018-05-10T15:06:20.139Z,6.67
2018-05-10T15:08:47.318Z,6.23
2018-05-10T15:11:13.533Z,3.90
2018-05-10T15:13:40.482Z,2.57
2018-05-10T15:16:06.689Z,3.00
2018-05-10T15:18:32.856Z,2.77
2018-05-10T15:20:59.055Z,2.53
2018-05-10T15:23:25.253Z,2.67
2018-05-10T15:25:51.402Z,2.77
2018-05-10T15:28:17.612Z,3.23
2018-05-10T15:30:43.837Z,3.73
2018-05-10T15:33:10.042Z,3.37
2018-05-10T15:35:36.228Z,3.90
2018-05-10T15:38:02.387Z,4.40
2018-05-10T15:40:28.523Z,4.20
2018-05-10T15:42:54.712Z,4.43
2018-05-10T15:45:20.960Z,3.30
2018-05-10T15:47:47.150Z,3.73
2018-05-10T15:50:13.481Z,3.17
2018-05-10T15:52:39.691Z,3.57
2018-05-10T15:55:05.859Z,3.20
2018-05-10T15:57:32.793Z,3.63
2018-05-10T15:59:59.714Z,3.00
2018-05-10T16:02:26.251Z,2.40
2018-05-10T16:04:52.433Z,2.60
2018-05-10T16:07:19.351Z,3.33
2018-05-10T16:09:45.552Z,2.63
2018-05-10T16:12:11.738Z,3.03
2018-05-10T16:14:37.924Z,3.00
2018-05-10T16:17:04.096Z,2.93
2018-05-10T16:19:30.330Z,4.97
2018-05-10T16:21:56.468Z,3.37
2018-05-10T16:24:23.392Z,3.10
2018-05-10T16:26:49.560Z,3.33
2018-05-10T16:29:16.448Z,2.93
2018-05-10T16:31:42.650Z,2.57
2018-05-10T16:34:08.815Z,3.47
2018-05-10T16:36:34.969Z,2.70
2018-05-10T16:39:01.103Z,2.40
2018-05-10T16:41:27.715Z,2.77
2018-05-10T16:43:53.892Z,3.40
2018-05-10T16:46:20.229Z,2.77
2018-05-10T16:48:47.153Z,1.97
2018-05-10T16:51:13.419Z,2.00
2018-05-10T16:53:40.324Z,1.93
2018-05-10T16:56:06.482Z,2.10
2018-05-10T16:58:32.686Z,2.10
2018-05-10T17:00:58.870Z,2.10
2018-05-10T17:03:25.039Z,2.40
2018-05-10T17:05:51.965Z,2.33
2018-05-10T17:08:18.925Z,2.53
2018-05-10T17:10:45.868Z,2.17
2018-05-10T17:13:12.781Z,2.17
2018-05-10T17:15:38.974Z,2.70
2018-05-10T17:18:05.137Z,2.30
2018-05-10T17:20:31.295Z,2.37
2018-05-10T17:22:57.457Z,2.60
2018-05-10T17:25:24.369Z,2.83
2018-05-10T17:27:50.577Z,2.83
2018-05-10T17:30:16.722Z,2.53
2018-05-10T17:32:42.889Z,2.47
2018-05-10T17:35:09.164Z,3.03
2018-05-10T17:37:35.321Z,2.27
2018-05-10T17:40:01.534Z,2.77
2018-05-10T17:42:27.733Z,2.80
2018-05-10T17:44:54.003Z,2.53
2018-05-10T17:47:20.228Z,2.57
2018-05-10T17:49:46.417Z,2.70
2018-05-10T17:52:12.561Z,2.57
2018-05-10T17:54:38.761Z,2.80
2018-05-10T17:57:05.076Z,2.50
2018-05-10T17:59:31.221Z,2.97
2018-05-10T18:01:57.458Z,2.50
2018-05-10T18:04:23.616Z,2.60
2018-05-10T18:06:49.790Z,2.87
2018-05-10T18:09:16.004Z,2.70
2018-05-10T18:11:42.239Z,2.23
2018-05-10T18:14:08.386Z,2.30
2018-05-10T18:16:35.321Z,2.40
2018-05-10T18:19:01.513Z,2.63
2018-05-10T18:21:27.767Z,3.00
2018-05-10T18:23:53.935Z,2.37
2018-05-10T18:26:20.875Z,2.43
2018-05-10T18:28:47.769Z,2.47
2018-05-10T18:31:14.019Z,2.70
2018-05-10T18:33:40.233Z,2.03
2018-05-10T18:36:06.652Z,2.67
2018-05-10T18:38:32.973Z,2.30
2018-05-10T18:40:59.928Z,2.33
2018-05-10T18:43:26.133Z,2.33
2018-05-10T18:45:53.097Z,2.53
2018-05-10T18:48:19.256Z,2.50
2018-05-10T18:50:45.386Z,2.90
2018-05-10T18:53:11.547Z,3.20
2018-05-10T18:55:38.021Z,3.10
2018-05-10T18:58:04.153Z,2.97
2018-05-10T19:00:31.095Z,2.73
2018-05-10T19:02:57.245Z,2.57
2018-05-10T19:05:23.400Z,2.50
2018-05-10T19:07:50.190Z,2.53
2018-05-10T19:10:16.356Z,2.27
2018-05-10T19:12:42.525Z,2.53
2018-05-10T19:15:08.672Z,2.53
2018-05-10T19:17:34.800Z,3.13
2018-05-10T19:20:00.972Z,5.40
2018-05-10T19:22:27.139Z,3.03
2018-05-10T19:24:53.348Z,3.97
2018-05-10T19:27:19.489Z,3.43
2018-05-10T19:29:45.637Z,3.87
2018-05-10T19:32:11.851Z,3.03
2018-05-10T19:34:38.100Z,3.30
2018-05-10T19:37:04.237Z,4.27
2018-05-10T19:39:30.786Z,4.60
2018-05-10T19:41:56.969Z,4.23
2018-05-10T19:44:23.864Z,3.60
2018-05-10T19:46:49.999Z,3.87
2018-05-10T19:49:16.229Z,5.60
2018-05-10T19:51:42.462Z,4.47
2018-05-10T19:54:08.633Z,4.30
2018-05-10T19:56:35.600Z,4.40
2018-05-10T19:59:01.758Z,4.40
2018-05-10T20:01:27.904Z,4.90
2018-05-10T20:03:54.065Z,6.57
2018-05-10T20:06:20.188Z,7.03
2018-05-10T20:08:47.118Z,6.30
2018-05-10T20:11:13.368Z,7.50
2018-05-10T20:13:40.409Z,8.27
2018-05-10T20:16:06.510Z,9.23
2018-05-10T20:18:32.692Z,9.37
2018-05-10T20:20:59.613Z,8.43
2018-05-10T20:23:25.739Z,9.27
2018-05-10T20:25:51.879Z,8.80
2018-05-10T20:28:18.266Z,8.70
2018-05-10T20:30:44.595Z,9.33
2018-05-10T20:33:11.474Z,8.67
2018-05-10T20:35:37.649Z,8.90
2018-05-10T20:38:03.836Z,8.57
2018-05-10T20:40:30.057Z,8.13
2018-05-10T20:42:56.972Z,8.87
2018-05-10T20:45:23.168Z,8.47
2018-05-10T20:47:49.390Z,9.37
2018-05-10T20:50:15.583Z,9.37
2018-05-10T20:52:41.742Z,9.53
2018-05-10T20:55:07.999Z,9.10
2018-05-10T20:57:34.199Z,8.63
2018-05-10T21:00:00.392Z,9.10
2018-05-10T21:02:26.603Z,8.63
2018-05-10T21:04:52.735Z,9.47
2018-05-10T21:07:19.470Z,10.30
2018-05-10T21:09:45.729Z,10.03
2018-05-10T21:15:21.815Z,10.17
2018-05-10T21:17:48.022Z,10.37
2018-05-10T21:20:14.277Z,10.40
2018-05-10T21:22:40.484Z,10.63
2018-05-10T21:25:06.620Z,10.70
2018-05-10T21:27:32.781Z,10.60
2018-05-10T21:29:58.912Z,11.47
2018-05-10T21:32:26.098Z,10.93
2018-05-10T21:34:52.325Z,11.40
2018-05-10T21:37:18.559Z,11.67
2018-05-10T21:39:45.486Z,11.27
2018-05-10T21:42:11.628Z,11.13
2018-05-10T21:44:37.859Z,11.77
2018-05-10T21:47:04.047Z,10.60
2018-05-10T21:49:48.777Z,10.93
2018-05-10T21:52:14.936Z,10.50
2018-05-10T21:54:41.198Z,11.00
2018-05-10T21:57:07.356Z,11.43
2018-05-10T21:59:33.497Z,10.97
2018-05-10T22:01:59.669Z,10.47
2018-05-10T22:04:25.838Z,10.40
2018-05-10T22:06:51.981Z,9.53
2018-05-10T22:09:18.193Z,11.80
2018-05-10T22:11:44.364Z,11.47
2018-05-10T22:14:11.285Z,10.57
2018-05-10T22:16:37.503Z,10.13
2018-05-10T22:19:03.729Z,9.63
2018-05-10T22:21:29.934Z,10.03
2018-05-10T22:23:56.141Z,9.47
2018-05-10T22:26:23.135Z,9.17
2018-05-10T22:28:49.552Z,8.37
2018-05-10T22:31:16.589Z,9.37
2018-05-10T22:33:42.750Z,9.23
2018-05-10T22:36:09.690Z,8.93
2018-05-10T22:38:35.908Z,7.93
2018-05-10T22:41:02.067Z,8.03
2018-05-10T22:43:28.526Z,8.00
2018-05-10T22:45:54.688Z,7.80
2018-05-10T22:48:20.884Z,8.63
2018-05-10T22:50:47.093Z,7.53
2018-05-10T22:53:13.264Z,8.17
2018-05-10T22:55:39.445Z,7.10
2018-05-10T22:58:05.622Z,7.80
2018-05-10T23:00:31.780Z,7.83
2018-05-10T23:02:57.984Z,7.70
2018-05-10T23:05:30.220Z,7.90
2018-05-10T23:07:56.447Z,7.57
2018-05-10T23:10:22.609Z,7.70
2018-05-10T23:12:48.819Z,8.20
2018-05-10T23:15:15.729Z,8.70
2018-05-10T23:17:42.720Z,8.07
2018-05-10T23:20:08.903Z,7.90
2018-05-10T23:22:35.090Z,8.13
2018-05-10T23:25:02.024Z,8.10
2018-05-10T23:27:35.119Z,6.83
2018-05-10T23:30:01.289Z,7.50
2018-05-10T23:32:27.525Z,7.70
2018-05-10T23:34:53.701Z,7.67
2018-05-10T23:37:20.693Z,7.70
2018-05-10T23:39:46.877Z,6.97
2018-05-10T23:42:13.073Z,7.80
2018-05-10T23:44:39.267Z,7.27
2018-05-10T23:47:05.448Z,8.10
2018-05-10T23:49:31.657Z,6.70
2018-05-10T23:51:58.612Z,7.17
2018-05-10T23:54:25.569Z,7.30
2018-05-10T23:56:51.754Z,7.50
2018-05-10T23:59:17.935Z,7.03
